Time;durP1;ratioP1;P1;durP2;ratioP2;P2;SDS_P1;SDS_P2;PMS_P1;PMS_P2;Temp;Humidity;BMP_temperature;BMP_pressure;BME280_temperature;BME280_humidity;BME280_pressure;Samples;Min_cycle;Max_cycle;Signal;HPM_P1;HPM_P2
2022/10/20 00:00:04;;;;;;;5.45;3.00;;;;;;;12.31;44.49;101424.78;4955683;28;20093;-85
2022/10/20 00:02:32;;;;;;;5.90;3.40;;;;;;;12.31;44.60;101433.88;4954083;29;20056;-85
2022/10/20 00:05:01;;;;;;;5.32;3.22;;;;;;;12.32;44.21;101412.81;4938437;29;20105;-85
2022/10/20 00:07:29;;;;;;;5.47;3.50;;;;;;;12.34;44.16;101405.31;4950411;29;20040;-86
2022/10/20 00:09:57;;;;;;;5.70;3.40;;;;;;;12.36;44.52;101401.44;4939543;29;20498;-86
2022/10/20 00:12:25;;;;;;;5.47;3.38;;;;;;;12.37;44.60;101399.56;4938817;29;20445;-86
2022/10/20 00:14:53;;;;;;;6.88;3.40;;;;;;;12.38;44.52;101393.06;4953171;28;20122;-85
2022/10/20 00:21:10;;;;;;;7.07;3.35;;;;;;;12.39;45.05;101370.97;4963099;28;20043;-86
2022/10/20 00:23:57;;;;;;;6.45;3.40;;;;;;;12.41;44.89;101360.72;4968657;28;20047;-86
2022/10/20 00:30:43;;;;;;;5.80;3.60;;;;;;;12.41;45.00;101352.50;4922314;28;20050;-87
2022/10/20 00:33:20;;;;;;;6.63;3.40;;;;;;;12.40;44.91;101353.50;4880660;29;20064;-86
2022/10/20 00:44:51;;;;;;;6.28;3.05;;;;;;;12.34;44.92;101354.03;4915940;29;20040;-85
2022/10/20 00:47:25;;;;;;;5.85;3.13;;;;;;;12.37;44.39;101352.91;4896048;29;20087;-85
2022/10/20 00:49:58;;;;;;;5.15;3.33;;;;;;;12.40;44.86;101347.13;4907545;29;20078;-86
2022/10/20 00:52:26;;;;;;;5.88;3.10;;;;;;;12.39;44.80;101342.66;4915944;29;20048;-84
2022/10/20 00:54:54;;;;;;;4.47;2.90;;;;;;;12.40;44.77;101337.03;4903171;29;20159;-86
2022/10/20 00:57:22;;;;;;;4.80;3.25;;;;;;;12.41;44.57;101329.66;4890233;29;20408;-85
2022/10/20 00:59:50;;;;;;;6.15;3.38;;;;;;;12.43;44.90;101339.50;4884852;29;20040;-86
2022/10/20 01:02:41;;;;;;;5.28;3.30;;;;;;;12.47;45.20;101340.97;4877799;29;20072;-85
2022/10/20 01:05:20;;;;;;;5.60;3.20;;;;;;;12.46;44.86;101332.84;4878979;29;20063;-87
2022/10/20 01:07:53;;;;;;;5.80;3.28;;;;;;;12.45;44.41;101326.53;4894046;29;20128;-85
2022/10/20 01:13:34;;;;;;;4.93;3.15;;;;;;;12.44;44.94;101307.44;4882114;29;20019;-86
2022/10/20 01:16:12;;;;;;;4.70;2.97;;;;;;;12.49;44.47;101316.13;4867369;29;20100;-85
2022/10/20 01:18:49;;;;;;;5.05;3.15;;;;;;;12.49;44.92;101311.50;4906880;29;20051;-85
2022/10/20 01:21:33;;;;;;;4.78;2.95;;;;;;;12.50;44.73;101309.63;4921613;29;20048;-86
2022/10/20 01:24:39;;;;;;;5.13;3.33;;;;;;;12.45;45.08;101300.94;4915385;29;20044;-85
2022/10/20 01:27:29;;;;;;;5.55;3.28;;;;;;;12.48;45.06;101293.28;4916122;29;20048;-84
2022/10/20 01:30:05;;;;;;;5.72;3.38;;;;;;;12.47;45.04;101297.03;4891135;29;20071;-85
2022/10/20 01:32:52;;;;;;;5.05;3.45;;;;;;;12.47;44.83;101282.44;4923098;29;20048;-85
2022/10/20 01:52:11;;;;;;;5.00;3.20;;;;;;;12.28;44.67;101285.97;4993731;23;20461;-69
2022/10/20 01:54:40;;;;;;;5.28;3.15;;;;;;;12.31;44.90;101279.31;5027223;28;20045;-69
2022/10/20 01:57:22;;;;;;;5.50;3.13;;;;;;;12.33;44.83;101267.22;5005011;28;20053;-70
2022/10/20 02:00:02;;;;;;;6.03;3.53;;;;;;;12.32;45.39;101267.34;4995150;28;20576;-69
2022/10/20 02:02:54;;;;;;;5.88;3.40;;;;;;;12.33;44.94;101263.59;5006768;28;20490;-70
2022/10/20 02:05:45;;;;;;;6.28;3.40;;;;;;;12.30;45.52;101244.66;4986705;28;20136;-69
2022/10/20 02:08:20;;;;;;;7.25;3.58;;;;;;;12.32;44.84;101237.16;5000700;28;20046;-70
2022/10/20 02:10:50;;;;;;;5.80;3.47;;;;;;;12.31;44.84;101235.41;5005108;28;20044;-70
2022/10/20 02:13:21;;;;;;;5.53;3.90;;;;;;;12.31;44.89;101236.28;5006774;28;20046;-70
2022/10/20 02:15:53;;;;;;;7.43;4.05;;;;;;;12.29;44.75;101224.59;5005816;28;20614;-70
2022/10/20 02:18:24;;;;;;;5.40;3.50;;;;;;;12.26;45.17;101224.84;4983368;28;20048;-70
2022/10/20 02:20:56;;;;;;;5.97;3.75;;;;;;;12.28;45.12;101220.09;4989544;28;20042;-70
2022/10/20 02:23:26;;;;;;;6.28;3.65;;;;;;;12.25;45.15;101219.50;4997492;28;20042;-69
2022/10/20 02:25:55;;;;;;;5.60;3.60;;;;;;;12.25;45.11;101214.88;5005739;28;20042;-70
2022/10/20 02:28:26;;;;;;;5.18;3.60;;;;;;;12.28;44.76;101213.75;5007254;28;20065;-70
2022/10/20 02:30:56;;;;;;;7.28;3.67;;;;;;;12.27;44.96;101206.50;4988230;28;20038;-70
2022/10/20 02:33:26;;;;;;;4.55;3.22;;;;;;;12.27;44.65;101218.38;5000167;28;20466;-69
2022/10/20 02:35:57;;;;;;;5.15;3.42;;;;;;;12.27;44.96;101218.38;5005336;28;20046;-70
2022/10/20 02:38:26;;;;;;;5.38;3.28;;;;;;;12.27;44.76;101196.41;4987495;28;20470;-70
2022/10/20 02:40:54;;;;;;;6.93;3.45;;;;;;;12.26;44.79;101200.16;4999562;28;20049;-70
2022/10/20 02:43:21;;;;;;;6.60;3.58;;;;;;;12.28;44.82;101202.78;4988089;28;20077;-69
2022/10/20 02:45:49;;;;;;;5.57;3.47;;;;;;;12.28;45.00;101198.16;4988163;28;20073;-69
2022/10/20 02:48:17;;;;;;;5.80;3.22;;;;;;;12.28;45.06;101200.91;5001921;28;20057;-69
2022/10/20 02:50:45;;;;;;;4.85;3.35;;;;;;;12.29;44.81;101202.63;5005220;28;20038;-69
2022/10/20 02:53:13;;;;;;;6.40;3.58;;;;;;;12.30;45.09;101195.25;5006010;28;20041;-69
2022/10/20 02:55:43;;;;;;;5.78;3.47;;;;;;;12.30;44.88;101195.25;5004081;28;20042;-70
2022/10/20 02:58:10;;;;;;;5.50;3.38;;;;;;;12.30;44.84;101195.25;5005744;28;20102;-70
2022/10/20 03:00:38;;;;;;;5.07;3.38;;;;;;;12.30;45.23;101185.13;5004552;28;20041;-69
2022/10/20 03:03:06;;;;;;;5.13;3.38;;;;;;;12.31;44.82;101184.13;5002942;28;20092;-70
2022/10/20 03:05:39;;;;;;;4.80;3.53;;;;;;;12.34;45.22;101178.38;5004515;28;20045;-70
2022/10/20 03:08:06;;;;;;;;;;;;;;;12.05;45.50;101170.00;5006212;28;20380;-69
2022/10/20 03:10:36;;;;;;;4.93;3.20;;;;;;;12.28;45.16;101170.72;5006094;28;20382;-70
2022/10/20 03:13:06;;;;;;;5.85;3.65;;;;;;;12.34;44.83;101180.25;4989160;28;20537;-69
2022/10/20 03:15:34;;;;;;;5.18;3.53;;;;;;;12.34;44.57;101183.00;5004616;28;20100;-69
2022/10/20 03:18:03;;;;;;;6.32;3.50;;;;;;;12.32;44.70;101172.16;5007213;28;20084;-70
2022/10/20 03:20:30;;;;;;;4.97;3.58;;;;;;;12.33;44.74;101173.91;5006650;28;20042;-70
2022/10/20 03:22:58;;;;;;;4.93;3.20;;;;;;;12.33;44.76;101171.16;4986499;28;20053;-70
2022/10/20 03:25:26;;;;;;;6.32;3.10;;;;;;;12.33;45.25;101173.91;5004363;28;20558;-70
2022/10/20 03:27:54;;;;;;;5.80;3.65;;;;;;;12.34;44.73;101172.03;5005634;28;20807;-69
2022/10/20 03:30:23;;;;;;;5.80;3.55;;;;;;;12.36;44.72;101159.03;4975740;28;20041;-70
2022/10/20 03:32:51;;;;;;;5.28;3.33;;;;;;;12.33;44.76;101154.69;4982361;28;20048;-70
2022/10/20 03:35:19;;;;;;;5.40;3.70;;;;;;;12.34;44.74;101152.81;5005644;28;20091;-70
2022/10/20 03:37:47;;;;;;;4.90;3.38;;;;;;;12.35;44.54;101154.56;5004309;28;20132;-70
2022/10/20 03:40:15;;;;;;;5.97;3.25;;;;;;;12.34;45.01;101150.94;5000976;28;20092;-70
2022/10/20 03:42:43;;;;;;;5.80;3.38;;;;;;;12.33;45.13;101142.84;4992122;28;20089;-70
2022/10/20 03:45:11;;;;;;;5.07;3.20;;;;;;;12.34;45.05;101145.44;5005309;28;20072;-70
2022/10/20 03:47:45;;;;;;;4.97;3.22;;;;;;;12.36;45.24;101148.06;5000033;28;20082;-70
2022/10/20 03:50:13;;;;;;;5.75;3.63;;;;;;;12.34;44.86;101142.69;5006269;28;20490;-70
2022/10/20 03:52:41;;;;;;;5.57;3.20;;;;;;;12.34;45.09;101145.44;4986767;28;20046;-69
2022/10/20 03:55:09;;;;;;;5.93;3.75;;;;;;;12.34;44.99;101134.47;5006585;28;20049;-70
2022/10/20 03:57:37;;;;;;;5.60;3.47;;;;;;;12.34;44.82;101147.31;4983987;28;20111;-70
2022/10/20 04:00:06;;;;;;;5.55;3.47;;;;;;;12.35;44.74;101129.84;5005522;28;20665;-70
2022/10/20 04:02:42;;;;;;;6.10;3.63;;;;;;;12.36;44.65;101134.34;5003668;28;20399;-69
2022/10/20 04:05:14;;;;;;;4.75;3.70;;;;;;;12.35;45.14;101119.75;5003856;28;20046;-70
2022/10/20 04:07:42;;;;;;;5.80;3.63;;;;;;;12.32;44.87;101120.00;4984766;28;20356;-69
2022/10/20 04:10:10;;;;;;;4.78;3.10;;;;;;;12.34;44.86;101119.88;5005979;28;20491;-70
2022/10/20 04:12:38;;;;;;;5.00;3.67;;;;;;;12.33;45.32;101116.25;4998391;28;20176;-70
2022/10/20 04:15:07;;;;;;;4.75;2.88;;;;;;;12.34;44.80;101114.38;5002683;28;20096;-70
2022/10/20 04:17:36;;;;;;;5.82;2.90;;;;;;;12.34;45.22;101122.63;5005228;28;20042;-70
2022/10/20 04:20:05;;;;;;;5.57;3.08;;;;;;;12.33;45.23;101119.00;5007011;28;20112;-70
2022/10/20 04:22:34;;;;;;;7.38;3.45;;;;;;;12.34;45.19;101120.75;4996295;28;20053;-70
2022/10/20 04:25:03;;;;;;;4.93;3.28;;;;;;;12.33;45.29;101119.00;4990988;28;20065;-70
2022/10/20 04:27:30;;;;;;;5.07;3.22;;;;;;;12.34;44.86;101111.63;4955630;28;20056;-69
2022/10/20 04:29:58;;;;;;;4.72;3.20;;;;;;;12.33;45.19;101102.53;5009787;28;20046;-70
2022/10/20 04:32:26;;;;;;;5.63;3.25;;;;;;;12.33;44.82;101093.44;5002835;28;20499;-70
2022/10/20 04:34:54;;;;;;;5.20;3.50;;;;;;;12.34;44.66;101103.41;5010599;28;20495;-70
2022/10/20 04:37:22;;;;;;;4.63;3.10;;;;;;;12.34;45.28;101089.69;5007739;28;20044;-69
2022/10/20 04:39:51;;;;;;;5.18;3.08;;;;;;;12.34;45.12;101082.31;5008165;28;20038;-71
2022/10/20 04:42:20;;;;;;;5.07;3.58;;;;;;;12.34;44.86;101075.97;4998394;28;20057;-70
2022/10/20 04:44:47;;;;;;;4.35;3.30;;;;;;;12.33;45.27;101066.00;5005698;28;20149;-70
2022/10/20 04:47:15;;;;;;;7.15;3.38;;;;;;;12.33;44.74;101071.47;5005932;28;20054;-69
2022/10/20 04:49:44;;;;;;;5.25;3.40;;;;;;;12.33;45.25;101074.22;5007995;28;20038;-69
2022/10/20 04:52:11;;;;;;;5.30;3.55;;;;;;;12.33;44.67;101066.84;5005966;28;20115;-69
2022/10/20 04:54:39;;;;;;;5.22;3.05;;;;;;;12.32;45.34;101054.13;5007629;28;20034;-69
2022/10/20 04:57:09;;;;;;;6.60;3.35;;;;;;;12.34;45.14;101054.00;5002003;28;20042;-69
2022/10/20 04:59:37;;;;;;;5.30;3.42;;;;;;;12.31;44.83;101041.41;5005182;28;20102;-69
2022/10/20 05:02:05;;;;;;;5.43;3.30;;;;;;;12.34;45.15;101043.03;5001836;28;20034;-69
2022/10/20 05:04:33;;;;;;;4.05;3.20;;;;;;;12.34;45.34;101030.19;5009000;28;20050;-69
2022/10/20 05:07:01;;;;;;;5.45;3.10;;;;;;;12.35;45.13;101039.28;5006556;28;20060;-69
2022/10/20 05:09:30;;;;;;;6.75;3.20;;;;;;;12.35;45.27;101037.41;5007139;28;20499;-69
2022/10/20 05:11:58;;;;;;;4.38;3.05;;;;;;;12.37;45.37;101031.78;4999701;28;20042;-69
2022/10/20 05:14:27;;;;;;;5.00;3.10;;;;;;;12.39;45.03;101033.34;5006976;28;20045;-69
2022/10/20 05:16:55;;;;;;;5.32;3.15;;;;;;;12.39;45.25;101018.75;5003388;28;20050;-69
2022/10/20 05:19:23;;;;;;;5.70;3.08;;;;;;;12.39;45.33;101013.25;5008128;28;20045;-69
2022/10/20 05:21:51;;;;;;;4.85;3.10;;;;;;;12.40;44.90;101013.13;5007486;28;20443;-69
2022/10/20 05:24:19;;;;;;;4.68;3.10;;;;;;;12.41;45.04;101001.16;4988636;28;20478;-69
2022/10/20 05:26:50;;;;;;;4.45;3.10;;;;;;;12.43;44.75;101010.13;4988085;28;20109;-70
2022/10/20 05:29:19;;;;;;;4.68;2.97;;;;;;;12.44;44.61;101013.72;5010111;28;20037;-71
2022/10/20 05:31:48;;;;;;;4.97;3.10;;;;;;;12.44;44.64;101011.84;5006253;28;20591;-71
2022/10/20 05:34:16;;;;;;;4.05;3.08;;;;;;;12.43;44.66;101006.50;5005990;28;20104;-71
2022/10/20 05:36:44;;;;;;;4.75;3.20;;;;;;;12.42;44.83;100997.41;4990612;28;20502;-72
2022/10/20 05:39:12;;;;;;;4.43;3.03;;;;;;;12.43;44.67;100990.03;5004912;28;20037;-72
2022/10/20 05:41:39;;;;;;;4.65;2.92;;;;;;;12.41;44.58;100995.66;5004886;28;20042;-72
2022/10/20 05:44:08;;;;;;;5.97;3.17;;;;;;;12.43;45.00;100995.53;5006826;28;20045;-70
2022/10/20 05:46:39;;;;;;;4.95;3.42;;;;;;;12.44;45.03;100997.25;4989871;28;20050;-71
2022/10/20 05:49:12;;;;;;;4.82;3.30;;;;;;;12.45;44.52;100993.50;5008744;28;20117;-71
2022/10/20 05:51:41;;;;;;;4.22;2.83;;;;;;;12.41;44.66;100992.03;5005945;28;20042;-70
2022/10/20 05:54:11;;;;;;;4.65;3.42;;;;;;;12.44;44.94;100991.75;4986839;28;20042;-70
2022/10/20 05:56:39;;;;;;;5.45;3.42;;;;;;;12.41;45.04;100990.16;5001486;28;20136;-70
2022/10/20 05:59:07;;;;;;;5.00;3.28;;;;;;;12.41;44.50;100984.69;5008841;28;20046;-70
2022/10/20 06:01:47;;;;;;;5.03;3.63;;;;;;;12.43;44.55;100979.06;5008448;28;20066;-70
2022/10/20 06:04:19;;;;;;;5.38;3.22;;;;;;;12.42;44.84;100977.31;5009458;28;20049;-70
2022/10/20 06:06:47;;;;;;;4.05;3.00;;;;;;;12.40;44.38;100980.19;5002058;28;20046;-70
2022/10/20 06:09:16;;;;;;;5.43;3.08;;;;;;;12.41;44.63;100983.81;5009643;28;20081;-70
2022/10/20 06:11:44;;;;;;;4.85;3.63;;;;;;;12.40;44.83;100993.03;5006955;28;20688;-70
2022/10/20 06:14:12;;;;;;;5.43;3.40;;;;;;;12.39;44.38;100975.72;5001681;28;20054;-70
2022/10/20 06:16:40;;;;;;;4.90;3.30;;;;;;;12.39;44.89;100983.06;4990989;28;20065;-70
2022/10/20 06:19:08;;;;;;;6.10;3.40;;;;;;;12.38;44.51;100984.94;4992132;28;20049;-70
2022/10/20 06:21:38;;;;;;;5.22;3.50;;;;;;;12.40;44.69;100980.19;5002990;28;20038;-70
2022/10/20 06:24:06;;;;;;;5.45;3.53;;;;;;;12.38;44.73;100989.56;4984409;28;20523;-70
2022/10/20 06:26:36;;;;;;;5.05;3.38;;;;;;;12.39;44.73;100991.31;4991195;28;20104;-70
2022/10/20 06:29:06;;;;;;;4.85;3.22;;;;;;;12.39;44.71;100996.78;5008427;28;20042;-70
2022/10/20 06:31:37;;;;;;;4.55;3.55;;;;;;;12.40;44.95;101006.78;5005068;28;20053;-70
2022/10/20 06:34:06;;;;;;;6.18;3.45;;;;;;;12.38;44.86;101009.66;5003542;28;20052;-69
2022/10/20 06:36:35;;;;;;;6.28;3.50;;;;;;;12.40;44.51;101009.50;5005275;28;20048;-70
2022/10/20 06:39:07;;;;;;;5.75;3.58;;;;;;;12.41;45.02;101011.25;5007023;28;20045;-66
2022/10/20 06:41:35;;;;;;;5.38;3.70;;;;;;;12.40;45.08;101009.50;5001666;28;20125;-68
2022/10/20 06:44:03;;;;;;;7.53;3.35;;;;;;;12.40;44.70;101018.63;5004518;28;20080;-68
2022/10/20 06:46:32;;;;;;;6.25;3.90;;;;;;;12.41;44.67;101012.13;5008024;28;20113;-68
2022/10/20 06:49:00;;;;;;;5.28;3.83;;;;;;;12.40;45.12;101010.38;5001377;28;20038;-68
2022/10/20 06:51:28;;;;;;;5.20;3.53;;;;;;;12.41;45.14;101001.16;4985622;28;20059;-68
2022/10/20 06:53:56;;;;;;;4.57;3.30;;;;;;;12.42;45.09;100993.78;5007205;28;20052;-68
2022/10/20 06:56:27;;;;;;;5.32;3.38;;;;;;;12.45;45.12;100996.25;4988288;28;20050;-68
2022/10/20 06:58:56;;;;;;;5.55;3.40;;;;;;;12.44;44.66;100995.38;5005322;28;20127;-67
2022/10/20 07:01:26;;;;;;;5.10;3.60;;;;;;;12.45;44.92;101008.09;5000655;28;20786;-68
2022/10/20 07:03:56;;;;;;;5.70;4.13;;;;;;;12.46;45.23;100987.84;4983981;28;20578;-68
2022/10/20 07:06:25;;;;;;;5.18;3.70;;;;;;;12.45;45.33;100988.00;5001306;28;20049;-67
2022/10/20 07:08:55;;;;;;;7.60;3.90;;;;;;;12.47;45.21;100997.81;5004593;28;20081;-68
2022/10/20 07:11:26;;;;;;;6.78;4.60;;;;;;;12.48;45.26;100993.19;5003675;28;20133;-68
2022/10/20 07:13:54;;;;;;;6.18;4.20;;;;;;;12.47;44.94;101006.06;4999347;28;20049;-67
2022/10/20 07:16:24;;;;;;;4.85;3.78;;;;;;;12.49;44.84;101004.03;4988341;28;20042;-69
2022/10/20 07:18:53;;;;;;;6.20;3.80;;;;;;;12.50;44.96;101018.63;4999966;28;20125;-70
2022/10/20 07:21:22;;;;;;;6.63;3.92;;;;;;;12.53;45.50;101012.88;5007133;28;20046;-70
2022/10/20 07:23:51;;;;;;;6.18;4.10;;;;;;;12.52;45.39;101019.38;5006489;28;20038;-69
2022/10/20 07:26:21;;;;;;;5.53;3.70;;;;;;;12.55;45.02;101019.06;5004853;28;20049;-69
2022/10/20 07:28:53;;;;;;;6.70;3.83;;;;;;;12.59;45.24;101011.41;5002266;28;20046;-68
2022/10/20 07:31:24;;;;;;;5.57;3.95;;;;;;;12.58;45.74;101010.53;4997406;28;20050;-69
2022/10/20 07:33:53;;;;;;;7.20;4.32;;;;;;;12.61;45.17;101001.16;5006214;28;20096;-69
2022/10/20 07:36:42;;;;;;;7.43;4.43;;;;;;;12.63;45.39;100996.41;5005973;28;20407;-70
2022/10/20 07:39:12;;;;;;;8.15;5.20;;;;;;;12.64;45.78;101001.75;5004299;28;20564;-69
2022/10/20 07:41:42;;;;;;;6.15;4.13;;;;;;;12.67;45.68;100990.50;4996387;28;20073;-69
2022/10/20 07:44:11;;;;;;;8.00;4.70;;;;;;;12.71;45.28;100986.44;5006030;28;20038;-69
2022/10/20 07:46:39;;;;;;;6.95;5.07;;;;;;;12.70;45.32;100998.47;4996355;28;20038;-69
2022/10/20 07:49:07;;;;;;;8.35;4.88;;;;;;;12.73;45.77;100987.16;5003348;28;20046;-69
2022/10/20 07:51:55;;;;;;;6.60;4.10;;;;;;;12.73;45.73;100987.16;4993236;28;20054;-67
2022/10/20 07:54:23;;;;;;;7.28;4.65;;;;;;;12.77;45.37;100983.13;5001331;28;20507;-69
2022/10/20 07:56:51;;;;;;;6.22;4.28;;;;;;;12.80;45.52;100984.69;4984128;28;20518;-70
2022/10/20 07:59:20;;;;;;;6.80;3.83;;;;;;;12.86;45.65;100984.13;5008792;28;20046;-69
2022/10/20 08:01:48;;;;;;;6.40;4.25;;;;;;;12.86;45.28;100990.50;5005071;28;20046;-69
2022/10/20 08:04:16;;;;;;;6.18;4.63;;;;;;;12.87;45.32;101005.94;4989727;28;20398;-70
2022/10/20 08:06:46;;;;;;;7.90;4.05;;;;;;;12.91;45.34;101016.66;5010188;28;20057;-70
2022/10/20 08:09:13;;;;;;;6.93;4.30;;;;;;;12.93;46.03;101015.50;4992331;28;20057;-69
2022/10/20 08:11:41;;;;;;;7.43;4.65;;;;;;;12.96;45.52;100992.34;4989787;28;20049;-69
2022/10/20 08:14:09;;;;;;;7.70;4.22;;;;;;;12.98;45.30;100993.06;5009216;28;20442;-69
2022/10/20 08:16:38;;;;;;;6.78;4.60;;;;;;;13.01;45.84;101001.03;5003078;28;20064;-69
2022/10/20 08:19:06;;;;;;;8.20;5.07;;;;;;;13.02;45.80;101005.50;5003094;28;20041;-70
2022/10/20 08:21:57;;;;;;;6.55;4.43;;;;;;;13.03;45.75;100997.13;5003489;28;20074;-71
2022/10/20 08:24:25;;;;;;;6.97;4.47;;;;;;;13.07;45.80;100997.69;5002777;28;20050;-70
2022/10/20 08:26:53;;;;;;;6.80;4.57;;;;;;;13.09;45.61;100992.91;5000136;28;20165;-71
2022/10/20 08:29:21;;;;;;;7.20;4.78;;;;;;;13.12;45.69;100989.84;5005497;28;20050;-71
2022/10/20 08:31:50;;;;;;;5.65;4.35;;;;;;;13.17;45.58;100982.91;5005021;28;20284;-70
2022/10/20 08:34:18;;;;;;;8.15;4.65;;;;;;;13.17;45.54;100988.41;5007154;28;20487;-68
2022/10/20 08:36:47;;;;;;;6.72;4.22;;;;;;;13.21;45.96;100983.47;5005703;28;20050;-69
2022/10/20 08:39:15;;;;;;;8.32;4.65;;;;;;;13.25;45.43;100987.66;5008073;28;20041;-69
2022/10/20 08:41:46;;;;;;;7.35;4.15;;;;;;;13.28;45.96;100990.13;5004834;28;20125;-69
2022/10/20 08:44:36;;;;;;;8.43;4.43;;;;;;;13.31;45.89;100977.94;4981649;28;20104;-69
2022/10/20 08:47:16;;;;;;;6.70;4.43;;;;;;;13.35;45.55;100993.16;5010334;28;20178;-69
2022/10/20 08:49:45;;;;;;;6.10;4.32;;;;;;;13.36;45.79;100979.25;5010911;28;20578;-69
2022/10/20 08:52:14;;;;;;;8.25;5.32;;;;;;;13.38;45.76;100970.84;4992315;28;20045;-69
2022/10/20 08:54:42;;;;;;;7.38;4.43;;;;;;;13.40;45.54;100972.44;5010990;28;20042;-69
2022/10/20 08:57:22;;;;;;;5.95;4.20;;;;;;;13.47;45.41;100990.06;5009233;28;20053;-69
2022/10/20 08:59:52;;;;;;;7.35;4.03;;;;;;;13.48;45.83;100974.44;5008136;28;20445;-69
2022/10/20 09:02:22;;;;;;;6.03;4.03;;;;;;;13.51;45.61;100980.50;5008785;28;20096;-69
2022/10/20 09:04:53;;;;;;;6.90;4.90;;;;;;;13.53;45.97;100975.69;5010117;28;20052;-70
2022/10/20 09:07:26;;;;;;;7.28;4.65;;;;;;;13.57;45.76;100993.69;4984085;28;20287;-69
2022/10/20 09:10:02;;;;;;;6.80;4.40;;;;;;;13.60;45.58;101012.63;5003799;28;20041;-69
2022/10/20 09:12:32;;;;;;;6.82;4.57;;;;;;;13.62;45.81;100972.06;5006761;28;20517;-69
2022/10/20 09:15:00;;;;;;;6.07;4.53;;;;;;;13.64;45.37;100952.69;5006110;28;20503;-69
2022/10/20 09:17:30;;;;;;;6.70;4.20;;;;;;;13.67;45.26;100959.78;4990648;28;20039;-69
2022/10/20 09:19:59;;;;;;;6.30;4.35;;;;;;;13.67;45.49;100957.03;4995492;28;20045;-69
2022/10/20 09:22:28;;;;;;;6.70;4.50;;;;;;;13.69;45.56;100961.34;4989077;28;20134;-69
2022/10/20 09:25:03;;;;;;;9.02;5.40;;;;;;;13.68;45.16;100959.63;4997790;28;20510;-69
2022/10/20 09:27:34;;;;;;;7.55;4.93;;;;;;;13.70;45.59;100941.06;4996409;28;20055;-68
2022/10/20 09:30:14;;;;;;;5.63;3.92;;;;;;;13.74;45.57;100952.63;4988709;28;20060;-69
2022/10/20 09:32:44;;;;;;;7.53;4.20;;;;;;;13.75;45.78;100958.00;4988924;28;20068;-68
2022/10/20 09:35:21;;;;;;;6.03;3.95;;;;;;;13.76;45.32;100940.47;4989860;28;20442;-69
2022/10/20 09:37:55;;;;;;;6.22;4.20;;;;;;;13.79;45.17;100942.91;5007541;28;20068;-70
2022/10/20 09:40:25;;;;;;;7.50;4.70;;;;;;;13.80;45.29;100946.50;5004528;28;20073;-68
2022/10/20 09:42:55;;;;;;;6.65;4.88;;;;;;;13.83;45.30;100951.72;5000890;28;20550;-69
2022/10/20 09:45:27;;;;;;;7.05;4.35;;;;;;;13.87;45.60;100937.50;4991252;28;20046;-69
2022/10/20 09:48:02;;;;;;;5.55;4.03;;;;;;;13.88;45.46;100936.47;5020536;28;20407;-69
2022/10/20 09:50:33;;;;;;;6.90;5.00;;;;;;;13.91;45.38;100938.94;4990256;28;20120;-69
2022/10/20 09:53:04;;;;;;;6.95;4.45;;;;;;;13.92;45.07;100937.91;5000703;28;20038;-69
2022/10/20 09:55:35;;;;;;;8.18;4.05;;;;;;;13.95;45.00;100939.47;4989081;28;20499;-68
2022/10/20 09:58:05;;;;;;;6.82;4.30;;;;;;;13.96;45.10;100931.06;4983780;28;20050;-69
2022/10/20 10:00:35;;;;;;;7.60;5.00;;;;;;;13.96;44.92;100943.97;5004053;28;20100;-69
2022/10/20 10:03:20;;;;;;;6.20;4.22;;;;;;;13.96;45.42;100976.97;4990137;28;20504;-68
2022/10/20 10:05:49;;;;;;;;;;;;;;;13.71;45.59;100983.19;4996762;28;20085;-69
2022/10/20 10:08:19;;;;;;;6.53;4.03;;;;;;;13.96;45.12;100982.47;4996571;28;20333;-69
2022/10/20 10:10:59;;;;;;;5.97;4.35;;;;;;;14.00;45.26;100968.28;5007120;28;20053;-68
2022/10/20 10:13:29;;;;;;;6.35;4.45;;;;;;;14.00;45.14;100972.91;4998825;28;20039;-68
2022/10/20 10:16:05;;;;;;;7.10;4.13;;;;;;;14.02;45.61;100975.50;5000659;28;20145;-69
2022/10/20 10:18:37;;;;;;;7.68;4.18;;;;;;;14.00;45.67;100971.03;5003076;28;20118;-68
2022/10/20 10:21:07;;;;;;;7.03;4.13;;;;;;;14.00;45.29;100971.03;4988953;28;20439;-69
2022/10/20 10:23:39;;;;;;;6.15;4.25;;;;;;;14.02;45.26;100990.13;5009298;28;20045;-69
2022/10/20 10:26:22;;;;;;;;;;;;;;;13.75;45.98;100985.50;4993850;28;20634;-69
2022/10/20 10:28:57;;;;;;;5.88;4.40;;;;;;;13.98;46.29;100984.06;4998884;28;19928;-69
2022/10/20 10:31:27;;;;;;;5.40;3.88;;;;;;;14.03;46.18;100983.59;4977103;28;20081;-69
2022/10/20 10:34:22;;;;;;;6.82;4.30;;;;;;;14.06;46.33;100965.91;5008746;28;20112;-69
2022/10/20 10:36:50;;;;;;;5.72;4.13;;;;;;;14.05;45.95;100983.44;4999248;28;20045;-69
2022/10/20 10:39:18;;;;;;;6.75;4.63;;;;;;;14.09;46.37;100965.63;4986951;28;20049;-69
2022/10/20 10:42:07;;;;;;;7.05;4.15;;;;;;;14.14;46.25;100977.88;4999286;28;20525;-69
2022/10/20 10:44:48;;;;;;;6.55;4.45;;;;;;;14.18;46.18;100956.44;5005807;28;20073;-68
2022/10/20 10:47:31;;;;;;;6.25;4.18;;;;;;;14.22;46.28;100946.81;5000040;28;20511;-70
2022/10/20 10:50:31;;;;;;;6.03;4.20;;;;;;;14.22;46.60;100961.47;5007218;28;20112;-70
2022/10/20 10:53:12;;;;;;;7.03;4.72;;;;;;;14.25;46.44;100949.28;5002192;28;20188;-71
2022/10/20 10:55:48;;;;;;;6.65;4.60;;;;;;;14.30;46.08;100949.66;5007536;28;20087;-71
2022/10/20 11:01:29;;;;;;;7.28;4.57;;;;;;;14.32;46.25;100923.72;4960578;28;20047;-67
2022/10/20 11:04:13;;;;;;;6.18;4.70;;;;;;;14.35;46.81;100928.88;4966591;28;20703;-67
2022/10/20 11:06:51;;;;;;;6.13;4.50;;;;;;;14.35;46.80;100904.09;4962459;28;20522;-68
2022/10/20 11:09:32;;;;;;;8.38;4.93;;;;;;;14.35;46.41;100922.53;4985266;28;20502;-67
2022/10/20 11:12:25;;;;;;;7.00;4.63;;;;;;;14.36;46.79;100908.59;4948252;28;20049;-67
2022/10/20 11:15:04;;;;;;;6.40;4.68;;;;;;;14.36;46.28;100927.88;4984195;28;20042;-68
2022/10/20 11:17:47;;;;;;;7.55;4.97;;;;;;;14.37;46.97;100943.38;4980451;28;20050;-68
2022/10/20 11:20:24;;;;;;;7.30;4.50;;;;;;;14.35;47.08;100920.63;4969902;28;20109;-67
2022/10/20 11:23:16;;;;;;;7.43;4.85;;;;;;;14.38;47.21;100944.25;4987520;28;20042;-67
2022/10/20 11:25:52;;;;;;;7.78;4.75;;;;;;;14.33;46.77;100938.34;4956041;28;20035;-67
2022/10/20 11:28:29;;;;;;;6.95;4.70;;;;;;;14.35;46.85;100953.66;4987069;28;20043;-67
2022/10/20 11:30:59;;;;;;;6.63;5.32;;;;;;;14.32;47.00;100948.50;4980195;28;20046;-67
2022/10/20 11:33:33;;;;;;;8.25;5.30;;;;;;;14.32;47.22;100956.75;4980902;28;20039;-67
2022/10/20 11:36:11;;;;;;;8.27;5.70;;;;;;;14.28;46.95;100959.97;4985309;28;20046;-67
2022/10/20 11:38:45;;;;;;;8.38;5.97;;;;;;;14.23;46.99;100952.19;4986770;28;20065;-67
2022/10/20 11:41:17;;;;;;;6.68;5.13;;;;;;;14.20;47.23;100954.38;4986609;28;20108;-67
2022/10/20 11:43:50;;;;;;;8.18;5.45;;;;;;;14.15;47.42;100954.84;4991120;28;20053;-67
2022/10/20 11:46:25;;;;;;;7.75;5.60;;;;;;;14.11;47.56;100967.16;4989312;28;20103;-67
2022/10/20 11:48:55;;;;;;;8.20;4.82;;;;;;;14.09;47.07;100960.13;4987090;28;20050;-67
2022/10/20 11:51:49;;;;;;;7.68;5.55;;;;;;;14.07;48.21;100948.38;4962805;28;20679;-66
2022/10/20 11:54:47;;;;;;;7.78;5.32;;;;;;;13.99;47.96;100950.03;4983772;28;20049;-66
2022/10/20 11:57:24;;;;;;;7.07;4.95;;;;;;;13.96;48.40;100958.59;4954019;28;20109;-67
2022/10/20 12:00:10;;;;;;;6.85;4.97;;;;;;;13.94;48.77;100966.13;4984049;28;20046;-68
2022/10/20 12:03:14;;;;;;;6.50;5.13;;;;;;;13.86;49.09;100956.94;4988723;28;20104;-68
2022/10/20 12:06:27;;;;;;;6.82;4.88;;;;;;;13.80;49.35;100957.53;4988534;28;20042;-68
2022/10/20 12:09:38;;;;;;;8.50;5.30;;;;;;;13.75;48.97;100949.75;4971605;28;20062;-69
2022/10/20 12:12:13;;;;;;;8.48;5.88;;;;;;;13.74;48.57;100941.63;4963573;28;20077;-69
2022/10/20 12:14:44;;;;;;;6.60;5.28;;;;;;;13.71;48.22;100936.44;4989647;28;20060;-70
2022/10/20 12:17:26;;;;;;;8.05;5.57;;;;;;;13.69;49.54;100922.84;4988976;28;20046;-70
2022/10/20 12:20:32;;;;;;;8.88;5.10;;;;;;;13.63;49.25;100905.06;4972176;28;20046;-69
2022/10/20 12:23:01;;;;;;;7.80;5.50;;;;;;;13.58;48.44;100895.53;4988185;28;20046;-72
2022/10/20 12:25:39;;;;;;;7.82;5.55;;;;;;;13.59;49.74;100881.66;4986758;28;20057;-74
2022/10/20 12:28:40;;;;;;;8.95;6.00;;;;;;;13.52;49.32;100883.25;4968955;28;20047;-74
2022/10/20 12:31:08;;;;;;;7.78;5.10;;;;;;;13.44;48.86;100896.03;4977898;28;20042;-74